This is the latest recevied weather packets stored in our database for station/object EA3RCF. If no packets are shown the sender has not sent any weather packets the latest 10 day(s).
| Time | Temp. | Humidity | Pressure | Rain* | Wind** | Luminosity | Snow |
|---|---|---|---|---|---|---|---|
| 1777903998 | 14.44° C | 94% | 1011.3 hPa | 13.97 mm | - | - | - |
| 1777903706 | 14.44° C | 94% | 1011.2 hPa | 13.97 mm | - | - | - |
| 1777903415 | 14.44° C | 94% | 1011.4 hPa | 13.97 mm | - | - | - |
| 1777903098 | 14.44° C | 94% | 1011.6 hPa | 13.97 mm | - | - | - |
| 1777902799 | 14.44° C | 94% | 1011.6 hPa | 12.95 mm | - | - | - |
| 1777902505 | 15° C | 94% | 1011.7 hPa | 12.95 mm | - | - | - |
| 1777902207 | 15° C | 93% | 1011.8 hPa | 9.91 mm | - | - | - |
| 1777901916 | 16.11° C | 90% | 1011.9 hPa | 4.06 mm | - | - | - |
| 1777901598 | 17.22° C | 83% | 1011.7 hPa | 1.02 mm | - | - | - |
| 1777901299 | 17.78° C | 80% | 1011.5 hPa | 0 mm | - | - | - |
| 1777901009 | 18.33° C | 78% | 1011.2 hPa | 0 mm | - | - | - |
| 1777900711 | 18.33° C | 77% | 1011.1 hPa | 0 mm | - | - | - |
| 1777900420 | 18.33° C | 76% | 1011.2 hPa | 0 mm | - | - | - |
| 1777900100 | 18.89° C | 76% | 1011.2 hPa | 0 mm | - | - | - |
| 1777899799 | 18.89° C | 76% | 1011 hPa | 0 mm | - | - | - |
| 1777899508 | 19.44° C | 75% | 1011 hPa | 0 mm | - | - | - |
| 1777899198 | 19.44° C | 73% | 1010.9 hPa | 0 mm | - | - | - |
| 1777898907 | 20° C | 73% | 1010.9 hPa | 0 mm | - | - | - |
| 1777898616 | 20° C | 72% | 1011 hPa | 0 mm | - | - | - |
| 1777898296 | 20° C | 71% | 1011.1 hPa | 0 mm | - | - | - |
| 1777897994 | 20° C | 70% | 1011.2 hPa | 0 mm | - | - | - |
| 1777897701 | 20.56° C | 68% | 1011.3 hPa | 0 mm | - | - | - |
| 1777897410 | 21.11° C | 65% | 1011.2 hPa | 0 mm | - | - | - |
| 1777897119 | 21.67° C | 61% | 1011.2 hPa | 0 mm | - | - | - |
| 1777896802 | 21.67° C | 61% | 1011.2 hPa | 0 mm | - | - | - |
* Rain latest hour (hover to see other rain measurements)
** Current wind speed in m/s (hover to see current wind gust speed)